Currently 72°F in Perris, California, USA
72°F
75°F / 42°F
calm
0.00"
Tuesday, January 28, 2020 2:38 PM PST

Perris, California Weather Summary
Last 36 Hours

Temperature Winds Hourly Humidity Dewpoint
Time Report Norm Report Norm Max Gusts Precip. Rpt. Norm Rpt. Norm Pressure
1Tue 02:38 PM  72.3°F  65°F  calm  4 mph  none  0.00"  38%  38%  44°F  38°F  30.12"
Tue 02:00 PM  73.3°F  65°F  calm  4 mph  7 mph  0.00"  35%  38%  43°F  38°F  30.13"
2Tue 01:06 PM  75.2°F  65°F  calm  4 mph  none  ----  31%  39%  41°F  39°F  30.16"
Tue 01:00 PM  74.6°F  65°F  calm  4 mph  none  0.00"  31%  39%  41°F  38°F  30.16"
Tue 12:00 PM  71.3°F  63°F  calm  4 mph  none  0.00"  39%  43%  44°F  40°F  30.19"
Tue 11:00 AM  66.2°F  61°F  calm  3 mph  none  0.00"  46%  50%  44°F  41°F  30.23"
Tue 10:00 AM  61.0°F  57°F  calm  3 mph  none  0.00"  62%  59%  47°F  42°F  30.26"
Tue 09:00 AM  53.8°F  52°F  calm  2 mph  none  0.00"  79%  69%  47°F  41°F  30.27"
Tue 08:00 AM  46.0°F  47°F  calm  2 mph  none  0.00"  89%  74%  43°F  39°F  30.28"
Tue 07:00 AM  43.3°F  45°F  calm  2 mph  none  0.00"  90%  75%  41°F  38°F  30.26"
Tue 06:00 AM  42.5°F  46°F  calm  1 mph  none  0.00"  91%  74%  40°F  38°F  30.25"
3Tue 05:56 AM  42.4°F  46°F  calm  1 mph  none  ----  91%  74%  40°F  38°F  30.25"
Tue 05:00 AM  44.2°F  46°F  calm  2 mph  none  0.00"  88%  73%  41°F  38°F  30.24"
Tue 04:00 AM  45.3°F  47°F  calm  1 mph  none  0.00"  88%  72%  42°F  38°F  30.25"
Tue 03:00 AM  46.8°F  48°F  calm  2 mph  none  0.00"  86%  71%  43°F  38°F  30.25"
Tue 02:00 AM  46.6°F  48°F  calm  1 mph  none  0.00"  82%  70%  41°F  39°F  30.26"
Tue 01:00 AM  49.9°F  50°F  calm  1 mph  none  0.00"  75%  68%  42°F  39°F  30.25"
Tue 12:00 AM  50.2°F  50°F  calm  2 mph  none  0.00"  79%  66%  44°F  39°F  30.24"
Mon 11:00 PM  54.4°F  52°F  calm  2 mph  none  0.00"  66%  65%  43°F  40°F  30.25"
Mon 10:00 PM  54.6°F  53°F  calm  2 mph  none  0.00"  64%  62%  42°F  40°F  30.25"
Mon 09:00 PM  57.4°F  54°F  calm  2 mph  none  0.00"  56%  60%  41°F  40°F  30.25"
Mon 08:00 PM  59.4°F  56°F  calm  3 mph  none  0.00"  53%  56%  41°F  40°F  30.25"
Mon 07:00 PM  60.9°F  57°F  calm  3 mph  none  0.00"  51%  54%  42°F  40°F  30.24"
Mon 06:00 PM  62.4°F  59°F  calm  3 mph  none  0.00"  55%  50%  45°F  39°F  30.22"
Mon 05:00 PM  66.3°F  61°F  calm  4 mph  none  0.00"  48%  45%  45°F  39°F  30.19"
Mon 04:00 PM  72.0°F  64°F  calm  4 mph  none  0.00"  34%  41%  41°F  39°F  30.19"
Mon 03:00 PM  71.6°F  65°F  calm  4 mph  none  0.00"  35%  39%  42°F  39°F  30.20"
Mon 02:00 PM  71.9°F  65°F  calm  4 mph  none  0.00"  41%  39%  46°F  39°F  30.20"
Mon 01:00 PM  68.5°F  65°F  calm  4 mph  none  0.00"  45%  40%  46°F  39°F  30.22"
Mon 12:00 PM  66.3°F  63°F  calm  3 mph  none  0.00"  52%  44%  47°F  40°F  30.24"
Mon 11:00 AM  60.8°F  60°F  calm  3 mph  none  0.00"  69%  51%  50°F  41°F  30.26"
Mon 10:00 AM  52.2°F  57°F  calm  3 mph  none  0.00"  97%  59%  51°F  42°F  30.27"
Mon 09:00 AM  48.4°F  52°F  calm  2 mph  none  0.00"  100%  69%  48°F  41°F  30.27"
Mon 08:00 AM  45.8°F  47°F  calm  2 mph  none  0.00"  100%  74%  46°F  39°F  30.27"
Mon 07:00 AM  41.9°F  46°F  calm  2 mph  none  0.00"  100%  75%  42°F  38°F  30.25"
Mon 06:00 AM  45.9°F  46°F  calm  1 mph  none  0.00"  100%  74%  46°F  38°F  30.24"
Mon 05:00 AM  46.6°F  46°F  calm  2 mph  none  0.00"  100%  73%  46°F  38°F  30.22"
Mon 04:00 AM  47.5°F  47°F  calm  1 mph  none  0.00"  99%  72%  47°F  38°F  30.22"
Mon 03:00 AM  49.3°F  48°F  calm  2 mph  none  0.00"  97%  71%  49°F  38°F  30.22"

  1. Current weather data. No green row appears if the current weather data is also the high or low for the current day.
  2. High temperature for the current day.
  3. Low temperature for the current day.

The Perris, California weather pages are a service of WeatherCurrents. Perris is located in Southern California's Inland Empire, south of Riverside and north of Sun City, along the Interstate 215 freeway.
Copyright ©2020  WeatherCurrents. All rights reserved. - Submit questions and comments - Privacy Policy

This page automatically refreshes every 10 minutes.